London, United Kingdom

10:59 AM BST on September 23, 2014 (GMT +0100)
Heathrow | Change Station
CLOSE
Current Station
Airport
Location: London,
Elevation: 79 ft
Nearby Weather Stations

Elev 79 ft 51.48 °N, 0.46 °W | Updated 9 minutes ago

Scattered Clouds
Scattered Clouds
59 °F
Feels Like 59 °F
N
5
Wind Variable Wind from WSW

Today
High -- | Low -- °F
--% Chance of Precip.
Yesterday
High -- | Low -- °F
Precip. -- in
6:49 AM 6:58 PM
Waning Crescent, 1% visible
Pressure 30.18 in
Visibility 5.0 miles
Clouds Scattered Clouds 4700 ft
Dew Point 48 °F
Humidity 67%
Rainfall 0.00 in
Snow Depth Not available.
UV 3 out of 12
Pollen Not available.
Air Quality Not available.
Flu Activity Not available.
METAR EGLL 230950Z 25004KT 190V360 8000 SCT047 15/09 Q1022 NOSIG

More Conditions Fewer Conditions

Pressure 30.18 in
Visibility 5.0 miles
Clouds Scattered Clouds 4700 ft
Dew Point 48 °F
Humidity 67%
Rainfall 0.00 in
Snow Depth Not available.
UV 3 out of 12
Pollen Not available.
Air Quality Not available.
Flu Activity Not available.
METAR EGLL 230950Z 25004KT 190V360 8000 SCT047 15/09 Q1022 NOSIG

More Conditions Fewer Conditions

10-Day Weather Forecast

Almanac

Astronomy

Sep. 23, 2014 Rise Set
Actual Time 6:49 AM BST 6:58 PM BST
Civil Twilight 6:15 AM BST 7:31 PM BST
Nautical Twilight 5:36 AM BST 8:10 PM BST
Astronomical Twilight 4:55 AM BST 8:51 PM BST
Moon 5:57 AM BST 6:28 PM BST
Length of Visible Light 13h 15m
Length of Day
12h 08m
Tomorrow will be 3m 54s shorter.
Waning Crescent, 1% of the Moon is Illuminated
Today
Waning Crescent
Sep 24
New
Oct 1
First Quarter
Oct 8
Full
Oct 15
Last Quarter

Yesterday's Extremes

Country Highs Country Lows

Community

WunderPhotos

Upload Photos

1,755,644 photos uploaded!

Nearby

Snow Depth

Not available.

Earthquake Activity

City Distance Mag. Time & Date
No recent earthquake activity has been reported nearby.
Minimum magnitude displayed is 2.5.

Coastal Water Temperatures

Place Temperature
No Stations Reporting

Nearby Weather Stations